Regionale Übersicht

METAR und TAF

Mittwoch, 12. August 2020 - 02:35 Uhr

Beobachtete horizontale meteorologische Sicht an ausgewählten Flughäfen. Die vollständigen METARs und Flugwettervorhersagen (TAFs) sind verfügbar, wenn Sie auf das entsprechende Symbol mit der ICAO-Flughafenkennung klicken.

  • Luxemburg (ELLX)

    Taf: TAF ELLX 112300Z 1200/1306 05006KT CAVOK BECMG 1206/1209 13010KT PROB40 TEMPO 1212/1221 18015G25KT -TSRA SHRA SCT050CB BECMG 1221/1224 05006KT=

    Metar: METAR ELLX 120020Z AUTO 05005KT 9999 NCD 22/16 Q1016 NOSIG=

  • Spangdahlem (ETAD)

    Taf: TAF AMD ETAD 112355Z 1123/1302 06006KT 9999 SCT080 QNH2999INS BECMG 1208/1209 10012KT 9999 SCT070 BKN180 QNH2996INS TEMPO 1212/1218 VRB12G20KT 5000 -TSRA BKN060CB BECMG 1217/1218 09005KT 9999 SCT060 BKN090 QNH2994INS TX33/1214Z TN18/1204Z LAST NO AMDS AFT 1123=

    Metar: METAR ETAD 112356Z AUTO 05006KT 9999 SCT080 21/16 A3001 RMK AO2 SLP133 60000 T02140157 10260 20205 56007 $=

  • Metz/Nancy (LFJL)

    Taf: TAF LFJL 112300Z 1200/1224 11007KT CAVOK BECMG 1212/1214 FEW080CB PROB40 TEMPO 1217/1221 24020G35KT 4000 TSRA SCT070CB BECMG 1221/1223 CAVOK=

    Metar: METAR LFJL 120000Z AUTO 10011KT CAVOK 24/16 Q1015 NOSIG=

  • Saarbrücken/Intl (EDDR)

    Taf: TAF EDDR 112300Z 1200/1224 08006KT CAVOK PROB30 TEMPO 1212/1220 14020G35KT TSRA SCT060CB=

    Metar: METAR EDDR 120020Z 07009KT CAVOK 21/17 Q1015=

  • Hahn (EDFH)

    Taf: TAF EDFH 112300Z 1200/1224 14010KT CAVOK PROB30 TEMPO 1212/1220 22020G35KT TSRA SCT050CB BECMG 1220/1222 14004KT=

    Metar: METAR EDFH 120020Z 14010KT CAVOK 19/17 Q1017=

  • Ramstein (ETAR)

    Taf: TAF AMD ETAR 112257Z 1122/1224 VRB06KT 9999 FEW060 BKN140 QNH3001INS TEMPO 1122/1124 11010G15KT 8000 -TSRA BKN060CB BECMG 1209/1210 09010G15KT 9999 FEW040 SCT150 QNH2995INS TEMPO 1215/1218 27015G25KT 6000 -TSRA BKN060 BECMG 1217/1218 VRB06KT 9999 BKN080 QNH2988INS TX34/1214Z TN16/1203Z=

    Metar: METAR ETAR 112356Z AUTO 05003KT 9999 FEW100 BKN130 21/19 A3000 RMK AO2 SLP148 T02120186 10241 20197 58002 FZRANO $=

  • Nancy/Ochey (LFSO)

    Taf: TAF LFSO 112000Z NIL=

    Metar: METAR LFSO 120000Z AUTO 21003KT CAVOK 24/15 Q1015=

  • Liège Bierset (EBLG)

    Taf: TAF EBLG 112300Z 1200/1306 15005KT CAVOK PROB40 TEMPO 1214/1223 VRB18G35KT 3000 TSRA=

    Metar: METAR EBLG 120020Z 14007KT CAVOK 23/15 Q1014 NOSIG=

  • Saint-Dizier (LFSI)

    Taf: TAF LFSI 112000Z 1121/1221 VRB02KT CAVOK PROB30 TEMPO 1121/1123 VRB25G40KT 2000 TSRAGS BKN070CB TEMPO 1213/1221 VRB20G35KT 3000 TSRA BKN070CB=

    Metar: METAR LFSI 120000Z AUTO 22005KT CAVOK 26/15 Q1014=

  • Maastricht/Zuid Limburg (EHBK)

    Taf: TAF EHBK 112259Z 1200/1306 11006KT CAVOK PROB40 TEMPO 1200/1202 VRB12G22KT 4000 TSRA SCT060CB PROB30 1202/1207 4000 BR MIFG PROB30 TEMPO 1213/1220 VRB20G30KT 4000 TSRAGR SCT060CB PROB30 TEMPO 1220/1303 VRB13G23KT 4000 TSRA SCT060CB=

    Metar: METAR EHBK 120025Z AUTO 13009KT 090V170 9999 NSC 23/16 Q1014=

  • Köln/Köln-Bonn (EDDK)

    Taf: TAF EDDK 112300Z 1200/1306 VRB03KT CAVOK PROB40 TEMPO 1200/1203 18010KT TSRA BKN040CB BECMG 1206/1209 13009KT PROB40 TEMPO 1215/1220 13015G30KT TSRA BKN040CB BECMG 1216/1219 11004KT=

    Metar: METAR EDDK 120020Z 04004KT 360V100 9999 -RA SCT037 21/18 Q1015 TEMPO TSRA SCT050CB=

  • Charleroi (EBCI)

    Taf: TAF EBCI 112300Z 1200/1306 14003KT CAVOK PROB30 TEMPO 1202/1205 4000 BR PROB40 TEMPO 1213/1223 VRB18G35KT 3000 TSRA=

    Metar: METAR EBCI 120020Z 10004KT CAVOK 22/18 Q1014 NOSIG=

  • Wiesbaden (ETOU)

    Taf: TAF ETOU 112000Z 1120/1302 VRB06KT 8000 -SHRA SCT040 BKN120 QNH3000INS BECMG 1202/1203 06006KT 9999 NSW FEW040 SCT110 QNH3003INS BECMG 1213/1214 12012G18KT 9999 VCTS BKN060CB QNH3000INS BECMG 1218/1219 VRB06KT 9999 NSW SCT050 QNH2994INS TX36/1215Z TN25/1204Z=

    Metar: METAR ETOU 112356Z AUTO 05008KT 9999 CLR 23/17 A3000 RMK AO2 SLP153 60002 T02330173 10281 20228 58003 $=

  • Karlsruhe/Baden-Baden (EDSB)

    Taf: TAF EDSB 112300Z NIL=

    Metar: METAR EDSB 120020Z AUTO VRB02KT 9999 NCD 22/19 Q1014=

  • Chalons/Vatry (LFOK)

    Taf: TAF AMD LFOK 112306Z 1123/1218 VRB02KT CAVOK TEMPO 1123/1202 VRB25G40KT 2000 TSRAGS BKN070CB TEMPO 1213/1218 VRB20G35KT 3000 TSRA BKN070CB=

    Metar: METAR LFOK 120000Z AUTO 24027KT 9999 VCTS ///CB 23/19 Q1015 TEMPO VRB25G35KT 2000 TSRAGS=

  • Frankfurt/Main (EDDF)

    Taf: TAF EDDF 112300Z 1200/1306 04006KT CAVOK BECMG 1210/1212 12006KT PROB30 TEMPO 1212/1220 22020G35KT TSRA SCT060CB BECMG 1220/1222 04004KT=

    Metar: METAR EDDF 120020Z 07007KT CAVOK 24/16 Q1016 NOSIG=

  • Brüssel (EBBR)

    Taf: TAF EBBR 112300Z 1200/1306 12003KT CAVOK PROB40 TEMPO 1214/1224 VRB18G35KT 3000 TSRA=

    Metar: METAR EBBR 120020Z 03002KT CAVOK 20/19 Q1014 NOSIG=

  • Düsseldorf (EDDL)

    Taf: TAF EDDL 112300Z 1200/1306 VRB03KT CAVOK BECMG 1206/1209 13009KT PROB30 TEMPO 1215/1220 13015G30KT TSRA BKN040CB BECMG 1217/1220 11004KT=

    Metar: METAR EDDL 120020Z 08006KT CAVOK 21/20 Q1015 NOSIG=

  • Luxeuil (LFSX)

    Taf: TAF LFSX 112000Z NIL=

    Metar: METAR LFSX 120000Z AUTO 07007KT CAVOK 21/18 Q1015=

  • Eindhoven (EHEH)

    Taf: TAF EHEH 112311Z 1200/1306 06005KT CAVOK TEMPO 1214/1224 VRB18G30KT 4000 TSRA SCT060CB=

    Metar: METAR EHEH 120025Z AUTO 35005KT 290V050 9999 FEW015CB OVC130 23/19 Q1014 BLU=

  • Niederrhein (EDLV)

    Taf: TAF EDLV 112300Z NIL=

    Metar: METAR EDLV 120020Z NIL=

  • Dortmund/Wickede (EDLW)

    Taf: TAF EDLW 112300Z NIL=

    Metar: METAR EDLW 120020Z AUTO 13004KT 9999 // FEW200/// 23/18 Q1015=

  • Stuttgart/Echterdingen (EDDS)

    Taf: TAF EDDS 112300Z 1200/1224 VRB03KT CAVOK BECMG 1208/1210 08005KT PROB30 TEMPO 1212/1218 22020G35KT TSRA SCT060CB BECMG 1218/1220 VRB03KT=

    Metar: METAR EDDS 120020Z 11005KT 070V200 CAVOK 21/16 Q1017=

  • Basel-Mühlhausen (LFSB)

    Taf: TAF LFSB 112300Z 1200/1224 VRB03KT CAVOK PROB40 TEMPO 1207/1212 FEW065TCU BKN110 BECMG 1212/1214 FEW070CB PROB40 TEMPO 1218/1221 30015G25KT TSRA SCT070CB BECMG 1221/1224 CAVOK=

    Metar: METAR LFSB 120000Z AUTO 17003KT CAVOK 21/18 Q1015 NOSIG=

  • Lille (LFQQ)

    Taf: TAF LFQQ 112300Z 1200/1306 05005KT CAVOK TEMPO 1212/1222 VRB20G35KT 3000 TSRAGS BKN070CB=

    Metar: METAR LFQQ 120000Z AUTO 18002KT CAVOK 24/17 Q1013 NOSIG=

  • Paris/Charles de Gaulle (LFPG)

    Taf: TAF AMD LFPG 120020Z 1200/1306 04010KT CAVOK TX33/1212Z TN21/1305Z PROB40 TEMPO 1200/1203 4000 TSRA SCT070CB TEMPO 1203/1205 VRB02KT TEMPO 1210/1213 VRB02KT PROB40 TEMPO 1213/1224 02015G30KT 4000 TSRA SCT080CB=

    Metar: METAR LFPG 120000Z 04005KT 9999 FEW043TCU BKN100 25/17 Q1013 NOSIG=

  • Paderborn/Lippstadt (EDLP)

    Taf: TAF EDLP 112300Z NIL=

    Metar: METAR EDLP NIL=

  • Paris/Le Bourget (LFPB)

    Taf: TAF AMD LFPB 120018Z 1200/1224 04010KT CAVOK PROB40 TEMPO 1200/1203 4000 TSRA SCT070CB TEMPO 1203/1205 VRB02KT TEMPO 1210/1213 VRB02KT PROB40 TEMPO 1213/1224 02015G30KT 4000 TSRA SCT080CB=

    Metar: METAR LFPB 120000Z AUTO 28001KT CAVOK 24/18 Q1013 TEMPO SCT070TCU BECMG 04010KT=

  • Rotterdam (EHRD)

    Taf: TAF EHRD 112304Z 1200/1306 09006KT CAVOK PROB30 TEMPO 1223/1306 4000 TSRA SCT060CB=

    Metar: METAR EHRD 120025Z AUTO 08008KT 9999 NSC 25/19 Q1014 NOSIG=

  • Zürich/Kloten (LSZH)

    Taf: TAF LSZH 112325Z 1200/1306 VRB03KT CAVOK TX32/1215Z TN18/1204Z TN18/1304Z PROB30 TEMPO 1203/1208 9999 FEW080TCU TEMPO 1212/1219 05006KT 9999 FEW060TCU PROB40 TEMPO 1219/1306 26015G25KT TSRA FEW050CB=

    Metar: METAR LSZH 120020Z NIL=

  • Oostende/Intl (EBOS)

    Taf: TAF EBOS 112300Z 1200/1306 04004KT 7000 NSC PROB30 TEMPO 1200/1205 4000 BR PROB40 TEMPO 1214/1224 VRB18G35KT 3000 TSRA PROB30 TEMPO 1300/1305 4000 BR=

    Metar: METAR EBOS 120020Z VRB01KT 3800 BR NSC 20/18 Q1013 TEMPO 2800 BR=

  • Paris/Orly (LFPO)

    Taf: TAF LFPO 112300Z 1200/1306 VRB03KT CAVOK TEMPO 1213/1224 -SHRA SCT090CB PROB40 TEMPO 1215/1221 VRB20G40KT 2000 TSRAGR BKN070CB=

    Metar: METAR LFPO 120000Z 14004KT CAVOK 24/22 Q1014 NOSIG=

  • Beauvais (LFOB)

    Taf: TAF LFOB 112300Z 1200/1224 VRB02KT CAVOK TEMPO 1212/1222 VRB20G35KT 3000 TSRAGS BKN070CB=

    Metar: METAR LFOB 120000Z AUTO VRB02KT 9999 ///CB 23/16 Q1014 BECMG NSC=

  • Münster/Intl (EDDG)

    Taf: TAF EDDG 112300Z 1200/1224 09004KT CAVOK TEMPO 1210/1214 12009KT PROB30 TEMPO 1216/1220 13015G30KT TSRA BKN040CB=

    Metar: METAR EDDG 120020Z 08004KT 010V140 CAVOK 25/16 Q1016 NOSIG=

  • Illesheim (ETIK)

    Taf: TAF ETIK 1122/1304 09006KT 9999 BKN060 QNH3003INS BECMG 1206/1207 12009KT 9999 FEW020 QNH3000INS BECMG 1217/1218 VRB06KT 9999 FEW040 QNH2998INS TX30/1212Z TN19/1204Z=

    Metar: METAR ETIK 112356Z AUTO 09004KT 9999 -RA FEW032 BKN060 OVC095 19/19 A3009 RMK AO2 DZB46E48RAB48 SLP174 P0001 60001 T01940194 10211 20187 51007 $=

  • Duebendorf (LSMD)

    Taf: TAF AMD LSMD 111708Z 1117/1223 VRB03KT CAVOK TEMPO 1117/1119 SHRA FEW060TCU PROB30 TEMPO 1203/1209 9999 FEW080TCU BECMG 1213/1215 9999 FEW050TCU PROB40 TEMPO 1216/1221 29012G25KT TSRA FEW060CB=

    Metar: METAR LSMD 120020Z AUTO 00000KT 9999NDV NCD 21/18 Q1017 RMK=

  • Villacoublay (LFPV)

    Taf: TAF LFPV 112000Z 1121/1221 12008KT CAVOK BECMG 1202/1204 20005KT PROB40 TEMPO 1214/1218 18015G25KT 4900 SHRA SCT080CB TEMPO 1220/1221 26020G35KT 3000 -TSRA SCT020 BKN060CB=

    Metar: METAR LFPV 120000Z AUTO 09005KT 070V140 9999 ///TCU 24/18 Q1014 BECMG NSC=

  • Payerne (LSMP)

    Taf: TAF LSMP 111625Z 1117/1223 VRB03KT CAVOK BECMG 1207/1210 9999 SCT080=

    Metar: METAR LSMP 120020Z AUTO 21002KT 9999NDV NCD 19/17 Q1017 RMK=

  • Amsterdam/Schipol (EHAM)

    Taf: TAF EHAM 112304Z 1200/1306 09006KT CAVOK PROB30 TEMPO 1300/1306 4000 TSRA SCT060CB=

    Metar: METAR EHAM 120025Z 12011KT CAVOK 25/18 Q1015 NOSIG=

  • Emmen (LSME)

    Taf: TAF AMD LSME 111633Z 1117/1223 14005KT 9999 FEW060TCU PROB30 TEMPO 1117/1119 29008KT TSRA SCT070CB BECMG 1117/1119 CAVOK PROB30 TEMPO 1203/1209 9999 FEW080TCU BECMG 1213/1215 9999 FEW050TCU PROB40 TEMPO 1216/1221 29012G25KT TSRA FEW060CB=

    Metar: METAR LSME 120020Z NIL=

  • Friedrichshafen (EDNY)

    Taf: TAF EDNY 112300Z 1200/1224 VRB02KT 9999 FEW055 TEMPO 1200/1206 03005KT TEMPO 1211/1216 23005KT PROB30 TEMPO 1218/1222 26020G30KT TSRA BKN050CB=

    Metar: METAR EDNY 120020Z AUTO 04004KT 9999 // NCD 20/18 Q1017=

  • Alpnach (LSMA)

    Taf: TAF AMD LSMA 111819Z 1118/1223 VRB03KT CAVOK PROB30 TEMPO 1203/1209 9999 FEW080TCU BECMG 1211/1213 9999 FEW050TCU PROB40 TEMPO 1213/1221 22012G25KT TSRA FEW060CB=

    Metar: METAR LSMA 120020Z AUTO VRB02KT 9999NDV NCD 19/17 Q1017 RMK=

  • Meiringen (LSMM)

    Taf: TAF LSMM 111625Z 1117/1223 23006KT 9999 FEW060TCU TEMPO 1117/1119 SHRA PROB40 TEMPO 1117/1119 27015G25KT 4000 TSRA SCT070CB BECMG 1117/1120 CAVOK PROB30 TEMPO 1203/1209 9999 FEW080TCU BECMG 1212/1214 9999 FEW060TCU PROB40 TEMPO 1214/1221 27015G25KT TSRA SCT070CB=

    Metar: METAR LSMM 120020Z AUTO 00000KT 9999NDV NCD 17/16 Q1018 RMK=

  • Nürnberg (EDDN)

    Taf: TAF EDDN 112300Z 1200/1224 VRB02KT CAVOK BECMG 1206/1208 11007KT=

    Metar: METAR EDDN 120020Z VRB01KT CAVOK 18/17 Q1018=

  • Rouen (LFOP)

    Taf: TAF LFOP 112300Z NIL=

    Metar: METAR LFOP 120000Z AUTO 36003KT 320V040 CAVOK 19/18 Q1013=

  • Evreux (LFOE)

    Taf: TAF LFOE 112000Z 1121/1221 09005KT 9999 SCT010TCU PROB30 TEMPO 1121/1124 VRB15G30KT 4000 TSRA BKN080CB BECMG 1200/1202 NSC BECMG 1209/1212 16010KT SCT080CB TEMPO 1214/1217 VRB20G35KT 2000 TSRA SCT010 BKN050CB TEMPO 1220/1221 VRB20G40KT 2000 TSRA=

    Metar: METAR LFOE 120000Z AUTO 16003KT 130V190 CAVOK 19/18 Q1014 NOSIG=

  • Erfurt/Bindersleben (EDDE)

    Taf: TAF EDDE 112300Z 1200/1224 16004KT CAVOK BECMG 1207/1209 10006KT=

    Metar: METAR EDDE 120020Z 20004KT CAVOK 21/15 Q1018=